Saturday, September 22, 2018, 9:42 AM EDT
Back to Local

KAUG, Augusta State Airport

Location: Augusta, ME, United States Lat: 44.317
Local Time: 9:42 AM EDT (13:42 GMT) Lon: -69.8
Time Zone: US/Eastern Elev: 351 ft

Show me the last for .
Show Decoded

2018-09-22 08:53 METAR KAUG 221253Z AUTO 32014G28KT 10SM CLR 17/08 A2995 RMK AO2 PK WND
                 28028/1244 RAB10E40 PRESRR SLP143 P0000 T01670078 =
2018-09-22 07:53 METAR KAUG 221153Z AUTO 28009G16KT 10SM CLR 17/09 A2990 RMK AO2 SLP124 60000
                 T01720094 10194 20172 51051 =
2018-09-22 06:53 METAR KAUG 221053Z AUTO 30013G26KT 10SM CLR 18/11 A2986 RMK AO2 PK WND
                 29026/1050 SLP110 T01830111 =
2018-09-22 05:53 METAR KAUG 220953Z AUTO 30008KT 10SM SCT026 BKN039 OVC065 19/17 A2979 RMK AO2
                 RAB14E30 SLP087 P0000 T01940172 =
2018-09-22 05:14 METAR KAUG 220914Z AUTO 24007KT 10SM -RA SCT014 BKN060 OVC070 19/17 A2976 RMK
                 AO2 RAB14 P0000 T01890172 =
2018-09-22 04:53 METAR KAUG 220853Z AUTO 22005KT 10SM OVC014 18/17 A2974 RMK AO2 SLP072 T01780167
                 55003 =
2018-09-22 04:07 METAR KAUG 220807Z AUTO VRB04KT 10SM BKN013 OVC018 18/17 A2972 RMK AO2 T01780167
                 =
2018-09-22 03:56 METAR KAUG 220756Z AUTO VRB06KT 10SM FEW009 OVC017 18/17 A2972 RMK AO2 T01780167
                 =
2018-09-22 03:53 METAR KAUG 220753Z AUTO 19006KT 10SM OVC017 18/17 A2971 RMK AO2 SLP062 T01780167
                 =
2018-09-22 03:29 METAR KAUG 220729Z AUTO 20008KT 10SM FEW009 BKN020 OVC026 17/16 A2972 RMK AO2
                 T01720161 =
2018-09-22 03:10 METAR KAUG 220710Z AUTO 21006KT 9SM FEW009 OVC014 17/16 A2973 RMK AO2 T01720161
                 =
2018-09-22 02:53 METAR KAUG 220653Z AUTO 21007KT 10SM OVC016 17/16 A2973 RMK AO2 SLP069 T01720161
                 =
2018-09-22 02:39 METAR KAUG 220639Z AUTO 20008G16KT 180V240 10SM OVC015 17/16 A2974 RMK AO2
                 T01720161 =
2018-09-22 01:53 METAR KAUG 220553Z AUTO 20009G18KT 160V230 10SM OVC010 17/16 A2975 RMK AO2
                 RAB23E33 SLP075 P0000 60000 T01720156 10172 20161 56028 =
2018-09-22 01:35 METAR KAUG 220535Z AUTO 20010G18KT 10SM OVC010 17/16 A2975 RMK AO2 RAB23E33
                 P0000 T01720156 =
2018-09-22 01:15 METAR KAUG 220515Z AUTO 20009G16KT 10SM OVC009 17/16 A2975 RMK AO2 T01670156 =
2018-09-22 00:53 METAR KAUG 220453Z AUTO 20010G19KT 10SM OVC010 17/15 A2977 RMK AO2 SLP083
                 T01670150 401670122 =
2018-09-21 23:53 METAR KAUG 220353Z AUTO 20009G18KT 10SM OVC013 17/14 A2981 RMK AO2 SLP094
                 T01670144 =
2018-09-21 23:10 METAR KAUG 220310Z AUTO 19010G18KT 10SM OVC014 17/14 A2983 RMK AO2 T01670144 =
2018-09-21 22:53 METAR KAUG 220253Z AUTO 18011G22KT 140V230 10SM OVC015 17/14 A2984 RMK AO2 PK
                 WND 19026/0220 SLP103 T01670139 56033 =
2018-09-21 21:53 METAR KAUG 220153Z AUTO 19009G21KT 10SM OVC019 17/13 A2986 RMK AO2 SLP113
                 T01670133 =
2018-09-21 20:53 METAR KAUG 220053Z AUTO 18010G21KT 10SM OVC027 16/13 A2990 RMK AO2 SLP125
                 T01610133 =
2018-09-21 19:53 METAR KAUG 212353Z AUTO 18011G21KT 10SM OVC028 16/13 A2993 RMK AO2 SLP137
                 T01610128 10161 20156 58033 =
2018-09-21 18:53 METAR KAUG 212253Z AUTO 18010G19KT 10SM FEW018 OVC032 16/12 A2997 RMK AO2 SLP148
                 T01560122 =
2018-09-21 18:29 METAR KAUG 212229Z AUTO 18010G20KT 10SM SCT019 OVC032 16/12 A2998 RMK AO2
                 T01560122 =
2018-09-21 17:53 METAR KAUG 212153Z AUTO 18012G17KT 10SM BKN021 OVC037 16/12 A3000 RMK AO2 SLP160
                 T01560117 =
2018-09-21 16:53 METAR KAUG 212053Z AUTO 18011G19KT 10SM OVC040 16/12 A3003 RMK AO2 SLP170
                 T01560117 57025 =
2018-09-21 15:53 METAR KAUG 211953Z AUTO 18010G22KT 10SM FEW023 SCT031 OVC040 16/12 A3007 RMK AO2
                 SLP183 T01560117 =
2018-09-21 14:53 METAR KAUG 211853Z AUTO 17011G18KT 10SM BKN023 OVC029 16/12 A3011 RMK AO2 SLP196
                 T01560117 =
2018-09-21 14:37 METAR KAUG 211837Z AUTO 17009G16KT 10SM SCT023 BKN029 OVC044 16/12 A3013 RMK AO2
                 T01560117 =
2018-09-21 13:53 METAR KAUG 211753Z AUTO 17009G19KT 10SM OVC048 16/11 A3016 RMK AO2 SLP213 60000
                 T01560106 10167 20128 58029 =
2018-09-21 12:53 METAR KAUG 211653Z AUTO 17008KT 10SM OVC050 14/11 A3019 RMK AO2 RAB08E50 SLP225
                 P0000 T01440106 =
2018-09-21 11:53 METAR KAUG 211553Z AUTO 18010G18KT 150V230 10SM OVC050 17/09 A3022 RMK AO2
                 SLP233 T01670094 =
2018-09-21 10:53 METAR KAUG 211453Z AUTO 17009G18KT 140V200 10SM OVC050 16/10 A3025 RMK AO2
                 SLP243 T01610100 58020 =
2018-09-21 09:53 METAR KAUG 211353Z AUTO 17006G14KT 10SM BKN055 OVC100 15/11 A3028 RMK AO2 SLP253
                 T01500111 =

Support USWX by starting your Amazon purchase here.